createdAt,value
2019-04-11T00:00:41.769Z,1.50
2019-04-11T00:03:11.392Z,1.50
2019-04-11T00:05:41.320Z,1.50
2019-04-11T00:08:12.028Z,1.50
2019-04-11T00:10:42.538Z,1.50
2019-04-11T00:13:19.812Z,1.50
2019-04-11T00:15:43.231Z,1.40
2019-04-11T00:18:14.445Z,1.40
2019-04-11T00:20:44.637Z,1.30
2019-04-11T00:23:14.190Z,1.30
2019-04-11T00:25:44.100Z,1.40
2019-04-11T00:28:13.567Z,1.40
2019-04-11T00:30:44.138Z,1.40
2019-04-11T00:33:20.213Z,1.40
2019-04-11T00:35:50.231Z,1.40
2019-04-11T00:38:21.952Z,1.40
2019-04-11T00:40:51.419Z,1.40
2019-04-11T00:43:30.582Z,1.50
2019-04-11T00:45:54.199Z,1.40
2019-04-11T00:48:23.864Z,1.40
2019-04-11T00:50:53.824Z,1.50
2019-04-11T00:53:29.845Z,1.30
2019-04-11T00:56:00.290Z,1.30
2019-04-11T00:58:29.816Z,1.30
2019-04-11T01:00:59.738Z,1.30
2019-04-11T01:03:30.421Z,1.30
2019-04-11T01:05:59.904Z,1.20
2019-04-11T01:08:29.422Z,1.20
2019-04-11T01:10:59.882Z,1.20
2019-04-11T01:13:40.594Z,1.20
2019-04-11T01:16:03.017Z,1.10
2019-04-11T01:18:32.475Z,1.10
2019-04-11T01:21:02.092Z,1.00
2019-04-11T01:23:33.226Z,1.00
2019-04-11T01:26:03.252Z,1.10
2019-04-11T01:28:32.899Z,1.10
2019-04-11T01:31:10.075Z,1.10
2019-04-11T01:33:40.171Z,1.20
2019-04-11T01:36:11.204Z,1.20
2019-04-11T01:38:46.334Z,1.30
2019-04-11T01:41:16.299Z,1.40
2019-04-11T01:43:53.434Z,1.40
2019-04-11T01:46:18.055Z,1.40
2019-04-11T01:49:01.837Z,1.50
2019-04-11T01:51:31.741Z,1.60
2019-04-11T01:54:01.591Z,1.60
2019-04-11T01:56:31.468Z,1.70
2019-04-11T01:59:01.124Z,1.70
2019-04-11T02:01:38.981Z,1.80
2019-04-11T02:04:10.175Z,1.80
2019-04-11T02:06:40.316Z,1.80
2019-04-11T02:09:13.770Z,1.80
2019-04-11T02:11:43.662Z,1.80
2019-04-11T02:14:16.476Z,1.80
2019-04-11T02:16:45.321Z,1.70
2019-04-11T02:19:16.153Z,1.80
2019-04-11T02:21:46.253Z,1.70
2019-04-11T02:24:20.811Z,1.70
2019-04-11T02:27:03.398Z,1.70
2019-04-11T02:29:33.282Z,1.70
2019-04-11T02:32:05.351Z,1.70
2019-04-11T02:34:35.256Z,1.70
2019-04-11T02:37:05.207Z,1.70
2019-04-11T02:39:35.676Z,1.70
2019-04-11T02:42:06.576Z,1.70
2019-04-11T02:44:52.297Z,1.70
2019-04-11T02:47:13.058Z,1.70
2019-04-11T02:49:39.290Z,1.60
2019-04-11T02:52:09.442Z,1.60
2019-04-11T02:54:43.039Z,1.60
2019-04-11T02:57:14.123Z,1.60
2019-04-11T02:59:46.289Z,1.50
2019-04-11T03:02:17.564Z,1.50
2019-04-11T03:04:47.996Z,1.50
2019-04-11T03:07:18.119Z,1.40
2019-04-11T03:09:48.863Z,1.30
2019-04-11T03:12:19.809Z,1.30
2019-04-11T03:15:09.238Z,1.40
2019-04-11T03:17:28.801Z,1.40
2019-04-11T03:20:02.711Z,1.30
2019-04-11T03:22:24.735Z,1.20
2019-04-11T03:24:58.374Z,1.30
2019-04-11T03:27:30.241Z,1.20
2019-04-11T03:30:00.117Z,1.30
2019-04-11T03:33:17.025Z,1.30
2019-04-11T03:38:18.380Z,1.30
2019-04-11T03:40:26.596Z,1.30
2019-04-11T03:42:50.285Z,1.40
2019-04-11T03:45:38.767Z,1.40
2019-04-11T03:47:54.472Z,1.40
2019-04-11T03:50:16.552Z,1.40
2019-04-11T03:52:43.074Z,1.40
2019-04-11T03:55:15.036Z,1.40
2019-04-11T03:57:44.653Z,1.40
2019-04-11T04:00:15.447Z,1.40
2019-04-11T04:02:46.784Z,1.40
2019-04-11T04:05:17.639Z,1.50
2019-04-11T04:07:48.858Z,1.40
2019-04-11T04:10:21.242Z,1.40
2019-04-11T04:12:51.748Z,1.40
2019-04-11T04:15:51.608Z,1.40
2019-04-11T04:18:16.524Z,1.40
2019-04-11T04:21:10.582Z,1.40
2019-04-11T04:23:43.241Z,1.40
2019-04-11T04:26:14.718Z,1.40
2019-04-11T04:28:45.230Z,1.40
2019-04-11T04:31:16.289Z,1.50
2019-04-11T04:33:47.665Z,1.50
2019-04-11T04:36:18.354Z,1.50
2019-04-11T04:38:48.765Z,1.40
2019-04-11T04:41:29.831Z,1.50
2019-04-11T04:43:52.742Z,1.50
2019-04-11T04:46:34.710Z,1.60
2019-04-11T04:48:55.795Z,1.60
2019-04-11T04:51:26.792Z,1.70
2019-04-11T04:53:58.415Z,1.70
2019-04-11T04:56:31.595Z,1.70
2019-04-11T04:58:59.779Z,1.70
2019-04-11T05:01:31.265Z,1.90
2019-04-11T05:04:00.371Z,2.00
2019-04-11T05:06:29.884Z,2.10
2019-04-11T05:09:00.234Z,2.00
2019-04-11T05:11:30.558Z,2.00
2019-04-11T05:14:00.888Z,2.00
2019-04-11T05:16:30.327Z,2.00
2019-04-11T05:19:00.801Z,2.00
2019-04-11T05:21:30.628Z,2.00
2019-04-11T05:24:00.065Z,2.00
2019-04-11T05:26:29.223Z,2.10
2019-04-11T05:28:58.714Z,2.10
2019-04-11T05:31:28.179Z,2.10
2019-04-11T05:33:57.342Z,2.20
2019-04-11T05:36:26.822Z,2.30
2019-04-11T05:38:56.426Z,2.30
2019-04-11T05:41:26.206Z,2.30
2019-04-11T05:43:55.855Z,2.40
2019-04-11T05:46:33.458Z,2.30
2019-04-11T05:49:00.699Z,2.40
2019-04-11T05:51:37.004Z,2.40
2019-04-11T05:54:05.711Z,2.40
2019-04-11T05:56:35.464Z,2.50
2019-04-11T05:59:09.851Z,2.60
2019-04-11T06:01:44.926Z,2.80
2019-04-11T06:04:24.099Z,2.90
2019-04-11T06:06:58.901Z,3.00
2019-04-11T06:09:38.148Z,3.10
2019-04-11T06:12:05.774Z,3.30
2019-04-11T06:14:39.704Z,3.40
2019-04-11T06:17:11.762Z,3.40
2019-04-11T06:19:50.045Z,3.40
2019-04-11T06:22:19.957Z,3.50
2019-04-11T06:25:03.655Z,3.60
2019-04-11T06:27:36.183Z,3.70
2019-04-11T06:30:26.383Z,3.90
2019-04-11T06:33:13.129Z,4.00
2019-04-11T06:35:50.401Z,4.20
2019-04-11T06:38:36.875Z,4.40
2019-04-11T06:41:08.357Z,4.40
2019-04-11T06:43:42.679Z,4.70
2019-04-11T06:46:16.689Z,4.90
2019-04-11T06:48:58.154Z,5.20
2019-04-11T06:51:38.501Z,5.40
2019-04-11T06:54:19.350Z,5.60
2019-04-11T06:56:52.101Z,6.10
2019-04-11T06:59:23.933Z,6.40
2019-04-11T07:01:55.050Z,6.90
2019-04-11T07:04:27.280Z,7.30
2019-04-11T07:06:58.533Z,8.10
2019-04-11T07:09:30.843Z,8.90
2019-04-11T07:12:03.518Z,9.30
2019-04-11T07:14:47.568Z,9.50
2019-04-11T07:17:36.866Z,9.70
2019-04-11T07:20:25.770Z,9.90
2019-04-11T07:23:13.596Z,9.70
2019-04-11T07:25:58.090Z,9.70
2019-04-11T07:28:39.228Z,10.10
2019-04-11T07:31:21.611Z,10.70
2019-04-11T07:34:10.554Z,11.50
2019-04-11T07:36:58.010Z,11.90
2019-04-11T07:39:29.531Z,12.10
2019-04-11T07:42:18.119Z,12.40
2019-04-11T07:44:58.315Z,13.20
2019-04-11T07:47:37.245Z,14.00
2019-04-11T07:50:10.011Z,14.40
2019-04-11T07:52:42.409Z,14.60
2019-04-11T07:55:13.151Z,14.70
2019-04-11T07:57:56.690Z,14.80
2019-04-11T08:00:38.641Z,14.90
2019-04-11T08:03:06.383Z,14.90
2019-04-11T08:05:41.011Z,14.90
2019-04-11T08:08:30.130Z,13.80
2019-04-11T08:11:17.719Z,12.60
2019-04-11T08:13:54.725Z,11.90
2019-04-11T08:16:28.843Z,11.20
2019-04-11T08:19:20.650Z,10.50
2019-04-11T08:22:08.455Z,10.30
2019-04-11T08:24:54.948Z,10.20
2019-04-11T08:27:31.979Z,9.80
2019-04-11T08:30:02.746Z,9.40
2019-04-11T08:32:46.424Z,9.30
2019-04-11T08:35:34.917Z,9.10
2019-04-11T08:38:12.120Z,9.00
2019-04-11T08:40:45.696Z,9.20
2019-04-11T08:43:35.228Z,9.20
2019-04-11T08:46:07.209Z,9.40
2019-04-11T08:48:39.234Z,9.50
2019-04-11T08:51:12.676Z,9.60
2019-04-11T08:53:46.004Z,9.30
2019-04-11T08:56:23.046Z,9.20
2019-04-11T08:59:30.681Z,9.10
2019-04-11T09:02:00.392Z,9.10
2019-04-11T09:04:50.298Z,9.30
2019-04-11T09:07:21.356Z,9.40
2019-04-11T09:09:55.651Z,9.40
2019-04-11T09:12:25.167Z,8.90
2019-04-11T09:15:02.581Z,8.60
2019-04-11T09:17:34.490Z,8.20
2019-04-11T09:20:09.415Z,8.00
2019-04-11T09:22:41.413Z,7.90
2019-04-11T09:25:12.847Z,7.90
2019-04-11T09:27:59.178Z,7.90
2019-04-11T09:30:36.745Z,7.90
2019-04-11T09:33:08.847Z,7.70
2019-04-11T09:35:39.912Z,7.90
2019-04-11T09:38:13.926Z,7.90
2019-04-11T09:40:52.036Z,7.70
2019-04-11T09:43:38.508Z,7.70
2019-04-11T09:46:24.625Z,7.90
2019-04-11T09:49:02.370Z,8.20
2019-04-11T09:51:49.898Z,8.80
2019-04-11T09:54:21.259Z,9.00
2019-04-11T09:56:58.533Z,9.50
2019-04-11T09:59:29.667Z,9.60
2019-04-11T10:02:00.791Z,9.80
2019-04-11T10:04:31.943Z,10.00
2019-04-11T10:07:13.071Z,9.70
2019-04-11T10:09:54.187Z,9.40
2019-04-11T10:12:40.653Z,8.80
2019-04-11T10:15:11.599Z,8.80
2019-04-11T10:17:58.999Z,9.70
2019-04-11T10:20:28.842Z,10.70
2019-04-11T10:23:03.296Z,11.60
2019-04-11T10:25:35.317Z,12.00
2019-04-11T10:28:13.244Z,11.50
2019-04-11T10:30:53.700Z,11.30
2019-04-11T10:33:41.446Z,11.30
2019-04-11T10:36:21.589Z,10.90
2019-04-11T10:38:52.986Z,10.60
2019-04-11T10:41:39.997Z,10.40
2019-04-11T10:44:11.744Z,10.40
2019-04-11T10:46:52.510Z,10.50
2019-04-11T10:49:30.284Z,10.70
2019-04-11T10:52:04.546Z,10.10
2019-04-11T10:54:35.028Z,9.50
2019-04-11T10:57:24.342Z,8.90
2019-04-11T10:59:54.612Z,8.70
2019-04-11T11:02:37.613Z,8.80
2019-04-11T11:05:10.313Z,9.10
2019-04-11T11:07:41.172Z,9.70
2019-04-11T11:10:12.170Z,9.50
2019-04-11T11:12:54.664Z,9.70
2019-04-11T11:15:28.045Z,9.70
2019-04-11T11:18:44.015Z,9.70
2019-04-11T11:20:55.018Z,9.90
2019-04-11T11:23:40.727Z,9.90
2019-04-11T11:26:12.638Z,10.00
2019-04-11T11:28:56.784Z,9.80
2019-04-11T11:31:42.756Z,9.40
2019-04-11T11:34:21.508Z,9.80
2019-04-11T11:36:54.796Z,10.40
2019-04-11T11:39:33.359Z,11.10
2019-04-11T11:42:22.652Z,11.20
2019-04-11T11:44:53.523Z,10.80
2019-04-11T11:47:41.653Z,10.80
2019-04-11T11:50:18.121Z,10.40
2019-04-11T11:52:53.145Z,10.30
2019-04-11T11:55:31.464Z,10.00
2019-04-11T11:58:19.968Z,9.80
2019-04-11T12:00:53.899Z,10.00
2019-04-11T12:03:29.213Z,10.30
2019-04-11T12:05:59.076Z,10.40
2019-04-11T12:08:44.221Z,10.00
2019-04-11T12:11:12.147Z,9.90
2019-04-11T12:13:55.810Z,10.00
2019-04-11T12:16:33.399Z,9.80
2019-04-11T12:19:08.819Z,9.70
2019-04-11T12:21:39.150Z,9.60
2019-04-11T12:24:25.370Z,9.20
2019-04-11T12:27:13.172Z,9.10
2019-04-11T12:29:50.098Z,8.90
2019-04-11T12:32:32.688Z,9.20
2019-04-11T12:35:15.732Z,9.60
2019-04-11T12:37:51.811Z,9.90
2019-04-11T12:40:38.155Z,9.90
2019-04-11T12:43:09.061Z,9.70
2019-04-11T12:45:56.359Z,9.60
2019-04-11T12:48:27.313Z,9.70
2019-04-11T12:51:00.904Z,9.70
2019-04-11T12:53:30.506Z,9.80
2019-04-11T12:56:01.600Z,10.10
2019-04-11T12:58:37.985Z,10.10
2019-04-11T13:01:17.631Z,9.90
2019-04-11T13:04:00.320Z,9.30
2019-04-11T13:06:46.220Z,9.10
2019-04-11T13:09:33.571Z,8.70
2019-04-11T13:12:20.727Z,8.70
2019-04-11T13:14:51.731Z,8.80
2019-04-11T13:17:28.816Z,9.00
2019-04-11T13:20:11.710Z,9.20
2019-04-11T13:22:41.345Z,9.00
2019-04-11T13:25:21.317Z,8.70
2019-04-11T13:27:53.026Z,8.80
2019-04-11T13:30:29.894Z,8.90
2019-04-11T13:33:00.711Z,8.90
2019-04-11T13:35:32.025Z,8.90
2019-04-11T13:38:06.746Z,8.70
2019-04-11T13:40:46.620Z,8.90
2019-04-11T13:43:28.990Z,8.70
2019-04-11T13:46:08.790Z,8.70
2019-04-11T13:48:48.782Z,8.70
2019-04-11T13:51:31.700Z,8.60
2019-04-11T13:54:20.012Z,8.40
2019-04-11T13:57:06.727Z,8.30
2019-04-11T13:59:37.934Z,8.20
2019-04-11T14:02:11.626Z,8.10
2019-04-11T14:04:42.642Z,7.90
2019-04-11T14:07:13.556Z,8.00
2019-04-11T14:09:44.490Z,7.90
2019-04-11T14:12:14.250Z,7.70
2019-04-11T14:14:43.706Z,7.70
2019-04-11T14:17:17.591Z,7.80
2019-04-11T14:20:08.834Z,7.70
2019-04-11T14:22:39.476Z,7.70
2019-04-11T14:25:29.419Z,7.70
2019-04-11T14:28:00.214Z,7.70
2019-04-11T14:30:34.130Z,7.90
2019-04-11T14:33:03.350Z,8.00
2019-04-11T14:35:49.355Z,8.20
2019-04-11T14:38:22.751Z,8.40
2019-04-11T14:41:01.534Z,8.70
2019-04-11T14:43:34.824Z,8.80
2019-04-11T14:46:20.899Z,9.10
2019-04-11T14:48:51.916Z,9.40
2019-04-11T14:51:23.855Z,9.60
2019-04-11T14:54:06.848Z,9.60
2019-04-11T14:56:52.189Z,9.50
2019-04-11T14:59:34.153Z,9.20
2019-04-11T15:02:09.568Z,9.10
2019-04-11T15:04:58.660Z,9.00
2019-04-11T15:07:29.721Z,9.20
2019-04-11T15:10:03.225Z,9.30
2019-04-11T15:12:36.463Z,9.40
2019-04-11T15:15:25.405Z,9.50
2019-04-11T15:17:56.589Z,9.50
2019-04-11T15:20:33.891Z,9.70
2019-04-11T15:23:07.067Z,9.50
2019-04-11T15:25:44.218Z,9.40
2019-04-11T15:28:26.942Z,9.40
2019-04-11T15:31:14.046Z,9.50
2019-04-11T15:33:54.355Z,9.60
2019-04-11T15:36:27.589Z,9.30
2019-04-11T15:39:00.733Z,9.30
2019-04-11T15:41:32.371Z,9.50
2019-04-11T15:44:14.006Z,9.30
2019-04-11T15:46:47.584Z,9.40
2019-04-11T15:49:21.218Z,9.30
2019-04-11T15:51:52.633Z,8.90
2019-04-11T15:54:32.178Z,8.80
2019-04-11T15:57:05.992Z,8.60
2019-04-11T15:59:43.804Z,8.50
2019-04-11T16:02:30.498Z,8.20
2019-04-11T16:05:02.142Z,7.90
2019-04-11T16:07:37.873Z,7.70
2019-04-11T16:10:11.764Z,7.60
2019-04-11T16:12:58.442Z,7.40
2019-04-11T16:15:35.127Z,7.40
2019-04-11T16:18:05.996Z,7.50
2019-04-11T16:20:36.492Z,7.60
2019-04-11T16:23:25.926Z,7.50
2019-04-11T16:25:54.446Z,7.40
2019-04-11T16:28:42.170Z,7.30
2019-04-11T16:31:11.502Z,7.20
2019-04-11T16:33:46.171Z,7.10
2019-04-11T16:36:20.454Z,7.10
2019-04-11T16:39:01.250Z,7.10
2019-04-11T16:41:48.052Z,7.00
2019-04-11T16:44:19.137Z,6.90
2019-04-11T16:47:05.207Z,6.70
2019-04-11T16:49:34.550Z,6.60
2019-04-11T16:52:07.518Z,6.50
2019-04-11T16:54:35.302Z,6.40
2019-04-11T16:57:04.767Z,6.40
2019-04-11T16:59:35.298Z,6.30
2019-04-11T17:02:05.036Z,6.30
2019-04-11T17:04:34.469Z,6.20
2019-04-11T17:07:17.685Z,6.10
2019-04-11T17:09:48.472Z,6.00
2019-04-11T17:12:18.143Z,6.00
2019-04-11T17:14:47.673Z,6.00
2019-04-11T17:17:17.123Z,5.90
2019-04-11T17:19:46.279Z,5.90
2019-04-11T17:22:16.770Z,5.80
2019-04-11T17:24:48.146Z,5.70
2019-04-11T17:27:18.014Z,5.70
2019-04-11T17:29:47.607Z,5.60
2019-04-11T17:32:17.105Z,5.60
2019-04-11T17:34:46.522Z,5.50
2019-04-11T17:37:15.701Z,5.50
2019-04-11T17:39:45.139Z,5.50
2019-04-11T17:42:15.669Z,5.40
2019-04-11T17:44:45.008Z,5.40
2019-04-11T17:47:14.533Z,5.40
2019-04-11T17:49:44.827Z,5.30
2019-04-11T17:52:14.407Z,5.30
2019-04-11T17:54:43.805Z,5.20
2019-04-11T17:57:14.141Z,5.10
2019-04-11T17:59:43.334Z,5.10
2019-04-11T18:02:12.722Z,5.00
2019-04-11T18:04:45.761Z,5.00
2019-04-11T18:07:16.987Z,4.90
2019-04-11T18:09:43.761Z,4.90
2019-04-11T18:12:13.348Z,4.90
2019-04-11T18:14:42.734Z,4.80
2019-04-11T18:17:11.882Z,4.70
2019-04-11T18:19:41.383Z,4.60
2019-04-11T18:22:13.409Z,4.60
2019-04-11T18:24:41.861Z,4.60
2019-04-11T18:27:11.613Z,4.60
2019-04-11T18:29:41.070Z,4.50
2019-04-11T18:32:11.315Z,4.50
2019-04-11T18:34:41.637Z,4.40
2019-04-11T18:37:10.981Z,4.50
2019-04-11T18:39:40.243Z,4.40
2019-04-11T18:42:09.925Z,4.40
2019-04-11T18:44:39.418Z,4.40
2019-04-11T18:47:08.861Z,4.40
2019-04-11T18:49:38.320Z,4.40
2019-04-11T18:52:18.915Z,4.40
2019-04-11T18:54:38.965Z,4.30
2019-04-11T18:57:08.533Z,4.30
2019-04-11T18:59:38.031Z,4.30
2019-04-11T19:02:09.943Z,4.30
2019-04-11T19:04:41.983Z,4.40
2019-04-11T19:07:12.735Z,4.40
2019-04-11T19:09:43.870Z,4.40
2019-04-11T19:12:15.897Z,4.40
2019-04-11T19:14:46.558Z,4.40
2019-04-11T19:17:16.680Z,4.30
2019-04-11T19:19:48.953Z,4.30
2019-04-11T19:22:19.677Z,4.30
2019-04-11T19:24:49.419Z,4.20
2019-04-11T19:27:20.528Z,4.20
2019-04-11T19:29:50.389Z,4.20
2019-04-11T19:32:19.632Z,4.10
2019-04-11T19:34:49.129Z,4.00
2019-04-11T19:37:18.505Z,4.00
2019-04-11T19:39:47.680Z,3.90
2019-04-11T19:42:19.671Z,3.90
2019-04-11T19:44:49.691Z,3.90
2019-04-11T19:47:21.661Z,3.90
2019-04-11T19:49:51.069Z,3.80
2019-04-11T19:52:20.463Z,3.70
2019-04-11T19:54:49.620Z,3.70
2019-04-11T19:57:19.098Z,3.70
2019-04-11T19:59:49.125Z,3.70
2019-04-11T20:02:18.491Z,3.60
2019-04-11T20:04:47.707Z,3.50
2019-04-11T20:07:17.163Z,3.40
2019-04-11T20:09:46.604Z,3.30
2019-04-11T20:12:15.896Z,3.30
2019-04-11T20:14:45.194Z,3.20
2019-04-11T20:17:14.363Z,3.10
2019-04-11T20:19:43.851Z,3.10
2019-04-11T20:22:13.334Z,3.00
2019-04-11T20:24:45.924Z,3.00
2019-04-11T20:27:14.087Z,3.00
2019-04-11T20:29:43.446Z,3.00
2019-04-11T20:32:12.615Z,2.90
2019-04-11T20:34:42.098Z,2.90
2019-04-11T20:37:13.135Z,2.90
2019-04-11T20:39:46.268Z,2.90
2019-04-11T20:42:13.971Z,2.90
2019-04-11T20:44:43.351Z,2.80
2019-04-11T20:47:12.645Z,2.80
2019-04-11T20:49:50.914Z,2.80
2019-04-11T20:52:20.538Z,2.80
2019-04-11T20:54:49.969Z,2.80
2019-04-11T20:57:25.672Z,2.80
2019-04-11T20:59:50.223Z,2.90
2019-04-11T21:02:19.438Z,2.80
2019-04-11T21:04:48.866Z,2.70
2019-04-11T21:07:18.386Z,2.70
2019-04-11T21:09:47.835Z,2.70
2019-04-11T21:12:18.140Z,2.70
2019-04-11T21:14:47.767Z,2.70
2019-04-11T21:17:17.149Z,2.60
2019-04-11T21:19:46.343Z,2.60
2019-04-11T21:22:15.911Z,2.50
2019-04-11T21:24:45.276Z,2.50
2019-04-11T21:27:14.820Z,2.50
2019-04-11T21:29:44.299Z,2.60
2019-04-11T21:32:14.110Z,2.50
2019-04-11T21:34:43.774Z,2.50
2019-04-11T21:37:13.215Z,2.50
2019-04-11T21:39:42.381Z,2.40
2019-04-11T21:42:11.574Z,2.40
2019-04-11T21:44:40.897Z,2.40
2019-04-11T21:47:10.406Z,2.40
2019-04-11T21:49:39.645Z,2.40
2019-04-11T21:52:12.002Z,2.40
2019-04-11T21:54:40.148Z,2.30
2019-04-11T21:57:10.527Z,2.30
2019-04-11T21:59:39.988Z,2.30
2019-04-11T22:02:12.243Z,2.30
2019-04-11T22:04:41.561Z,2.30
2019-04-11T22:07:11.029Z,2.30
2019-04-11T22:09:40.602Z,2.20
2019-04-11T22:12:10.111Z,2.20
2019-04-11T22:14:41.962Z,2.20
2019-04-11T22:17:15.192Z,2.20
2019-04-11T22:19:45.182Z,2.20
2019-04-11T22:22:12.955Z,2.20
2019-04-11T22:24:42.407Z,2.10
2019-04-11T22:27:11.616Z,2.10
2019-04-11T22:29:41.002Z,2.10
2019-04-11T22:32:10.175Z,2.00
2019-04-11T22:34:41.311Z,2.10
2019-04-11T22:37:10.836Z,2.10
2019-04-11T22:39:40.265Z,2.00
2019-04-11T22:42:09.598Z,2.00
2019-04-11T22:44:38.879Z,2.00
2019-04-11T22:47:08.696Z,2.00
2019-04-11T22:49:39.414Z,2.00
2019-04-11T22:52:11.453Z,1.90
2019-04-11T22:54:41.224Z,1.80
2019-04-11T22:57:12.113Z,1.80
2019-04-11T22:59:44.885Z,1.80
2019-04-11T23:02:21.451Z,1.80
2019-04-11T23:04:56.692Z,1.80
2019-04-11T23:07:26.121Z,1.80
2019-04-11T23:09:56.507Z,1.80
2019-04-11T23:12:25.958Z,1.80
2019-04-11T23:14:55.133Z,1.80
2019-04-11T23:17:24.644Z,1.80
2019-04-11T23:19:54.089Z,1.80
2019-04-11T23:22:24.353Z,1.80
2019-04-11T23:24:53.567Z,1.80
2019-04-11T23:27:24.197Z,1.80
2019-04-11T23:29:53.373Z,1.70
2019-04-11T23:32:23.229Z,1.80
2019-04-11T23:34:52.675Z,1.70
2019-04-11T23:37:23.450Z,1.70
2019-04-11T23:39:53.080Z,1.70
2019-04-11T23:42:24.127Z,1.70
2019-04-11T23:44:53.635Z,1.70
2019-04-11T23:47:23.775Z,1.70
2019-04-11T23:49:55.887Z,1.80
2019-04-11T23:52:26.867Z,1.80
2019-04-11T23:54:58.201Z,1.80
2019-04-11T23:57:28.827Z,1.80
2019-04-11T23:59:59.779Z,1.80
